sensor_id;sensor_type;location;lat;lon;timestamp;P1;durP1;ratioP1;P2;durP2;ratioP2
65279;SDS011;51878;55.748;48.742;2022-08-30T00:01:19;10.15;;;6.05;;
65279;SDS011;51878;55.748;48.742;2022-08-30T00:03:50;11.60;;;6.25;;
65279;SDS011;51878;55.748;48.742;2022-08-30T00:06:20;10.48;;;6.07;;
65279;SDS011;51878;55.748;48.742;2022-08-30T00:08:49;16.17;;;6.43;;
65279;SDS011;51878;55.748;48.742;2022-08-30T00:11:18;14.25;;;5.70;;
65279;SDS011;51878;55.748;48.742;2022-08-30T00:13:48;9.75;;;5.78;;
65279;SDS011;51878;55.748;48.742;2022-08-30T00:16:18;20.42;;;6.05;;
65279;SDS011;51878;55.748;48.742;2022-08-30T00:18:46;10.43;;;5.20;;
65279;SDS011;51878;55.748;48.742;2022-08-30T00:21:14;18.98;;;6.38;;
65279;SDS011;51878;55.748;48.742;2022-08-30T00:23:41;12.68;;;5.40;;
65279;SDS011;51878;55.748;48.742;2022-08-30T00:26:08;12.23;;;5.45;;
65279;SDS011;51878;55.748;48.742;2022-08-30T00:28:53;10.85;;;5.70;;
65279;SDS011;51878;55.748;48.742;2022-08-30T00:31:20;9.65;;;5.78;;
65279;SDS011;51878;55.748;48.742;2022-08-30T00:33:47;9.13;;;5.57;;
65279;SDS011;51878;55.748;48.742;2022-08-30T00:36:15;11.60;;;6.30;;
65279;SDS011;51878;55.748;48.742;2022-08-30T00:38:42;14.82;;;6.18;;
65279;SDS011;51878;55.748;48.742;2022-08-30T00:41:09;13.27;;;6.45;;
65279;SDS011;51878;55.748;48.742;2022-08-30T00:43:36;10.93;;;5.78;;
65279;SDS011;51878;55.748;48.742;2022-08-30T00:46:04;14.57;;;5.68;;
65279;SDS011;51878;55.748;48.742;2022-08-30T00:48:35;12.10;;;6.00;;
65279;SDS011;51878;55.748;48.742;2022-08-30T00:51:06;8.35;;;5.78;;
65279;SDS011;51878;55.748;48.742;2022-08-30T00:53:38;9.82;;;5.75;;
65279;SDS011;51878;55.748;48.742;2022-08-30T00:56:08;9.55;;;5.80;;
65279;SDS011;51878;55.748;48.742;2022-08-30T00:58:37;10.13;;;5.90;;
65279;SDS011;51878;55.748;48.742;2022-08-30T01:01:07;16.30;;;6.43;;
65279;SDS011;51878;55.748;48.742;2022-08-30T01:03:36;9.35;;;6.30;;
65279;SDS011;51878;55.748;48.742;2022-08-30T01:06:04;12.95;;;6.20;;
65279;SDS011;51878;55.748;48.742;2022-08-30T01:08:33;9.27;;;6.63;;
65279;SDS011;51878;55.748;48.742;2022-08-30T01:11:01;15.23;;;6.60;;
65279;SDS011;51878;55.748;48.742;2022-08-30T01:13:29;15.95;;;6.43;;
65279;SDS011;51878;55.748;48.742;2022-08-30T01:15:58;9.90;;;6.38;;
65279;SDS011;51878;55.748;48.742;2022-08-30T01:18:32;14.57;;;6.97;;
65279;SDS011;51878;55.748;48.742;2022-08-30T01:23:42;18.77;;;6.88;;
65279;SDS011;51878;55.748;48.742;2022-08-30T01:26:11;9.38;;;6.65;;
65279;SDS011;51878;55.748;48.742;2022-08-30T01:28:41;9.82;;;6.18;;
65279;SDS011;51878;55.748;48.742;2022-08-30T01:31:16;10.90;;;6.20;;
65279;SDS011;51878;55.748;48.742;2022-08-30T01:33:43;11.82;;;6.53;;
65279;SDS011;51878;55.748;48.742;2022-08-30T01:36:11;10.52;;;5.95;;
65279;SDS011;51878;55.748;48.742;2022-08-30T01:38:47;16.65;;;6.22;;
65279;SDS011;51878;55.748;48.742;2022-08-30T01:41:18;8.75;;;6.45;;
65279;SDS011;51878;55.748;48.742;2022-08-30T01:43:57;12.77;;;6.20;;
65279;SDS011;51878;55.748;48.742;2022-08-30T01:46:28;7.93;;;5.95;;
65279;SDS011;51878;55.748;48.742;2022-08-30T01:49:03;10.63;;;6.32;;
65279;SDS011;51878;55.748;48.742;2022-08-30T01:51:32;13.32;;;6.20;;
65279;SDS011;51878;55.748;48.742;2022-08-30T01:54:00;11.50;;;6.47;;
65279;SDS011;51878;55.748;48.742;2022-08-30T01:56:28;9.18;;;5.90;;
65279;SDS011;51878;55.748;48.742;2022-08-30T01:58:57;11.65;;;6.10;;
65279;SDS011;51878;55.748;48.742;2022-08-30T02:01:28;10.38;;;5.90;;
65279;SDS011;51878;55.748;48.742;2022-08-30T02:03:58;9.93;;;6.03;;
65279;SDS011;51878;55.748;48.742;2022-08-30T02:06:25;11.02;;;6.35;;
65279;SDS011;51878;55.748;48.742;2022-08-30T02:08:53;9.25;;;5.63;;
65279;SDS011;51878;55.748;48.742;2022-08-30T02:11:20;10.93;;;6.72;;
65279;SDS011;51878;55.748;48.742;2022-08-30T02:13:48;8.70;;;6.25;;
65279;SDS011;51878;55.748;48.742;2022-08-30T02:16:17;8.77;;;5.75;;
65279;SDS011;51878;55.748;48.742;2022-08-30T02:18:49;10.05;;;6.07;;
65279;SDS011;51878;55.748;48.742;2022-08-30T02:21:17;11.52;;;6.10;;
65279;SDS011;51878;55.748;48.742;2022-08-30T02:23:44;13.18;;;6.30;;
65279;SDS011;51878;55.748;48.742;2022-08-30T02:26:12;10.15;;;6.10;;
65279;SDS011;51878;55.748;48.742;2022-08-30T02:28:39;7.38;;;5.93;;
65279;SDS011;51878;55.748;48.742;2022-08-30T02:31:08;10.95;;;6.63;;
65279;SDS011;51878;55.748;48.742;2022-08-30T02:33:36;10.82;;;5.85;;
65279;SDS011;51878;55.748;48.742;2022-08-30T02:36:04;9.60;;;5.75;;
65279;SDS011;51878;55.748;48.742;2022-08-30T02:38:32;11.02;;;6.35;;
65279;SDS011;51878;55.748;48.742;2022-08-30T02:41:00;11.48;;;6.20;;
65279;SDS011;51878;55.748;48.742;2022-08-30T02:43:27;10.35;;;5.78;;
65279;SDS011;51878;55.748;48.742;2022-08-30T02:45:55;10.95;;;5.95;;
65279;SDS011;51878;55.748;48.742;2022-08-30T02:48:22;9.40;;;6.30;;
65279;SDS011;51878;55.748;48.742;2022-08-30T02:50:50;9.98;;;5.90;;
65279;SDS011;51878;55.748;48.742;2022-08-30T02:53:18;10.50;;;5.25;;
65279;SDS011;51878;55.748;48.742;2022-08-30T02:55:47;9.25;;;6.03;;
65279;SDS011;51878;55.748;48.742;2022-08-30T02:58:14;8.93;;;5.35;;
65279;SDS011;51878;55.748;48.742;2022-08-30T03:00:41;10.32;;;5.72;;
65279;SDS011;51878;55.748;48.742;2022-08-30T03:03:09;11.50;;;5.93;;
65279;SDS011;51878;55.748;48.742;2022-08-30T03:05:36;11.90;;;5.70;;
65279;SDS011;51878;55.748;48.742;2022-08-30T03:08:05;8.98;;;5.40;;
65279;SDS011;51878;55.748;48.742;2022-08-30T03:10:34;15.25;;;5.93;;
65279;SDS011;51878;55.748;48.742;2022-08-30T03:13:01;16.10;;;5.78;;
65279;SDS011;51878;55.748;48.742;2022-08-30T03:15:29;12.40;;;5.93;;
65279;SDS011;51878;55.748;48.742;2022-08-30T03:17:56;14.13;;;5.57;;
65279;SDS011;51878;55.748;48.742;2022-08-30T03:20:24;10.02;;;5.30;;
65279;SDS011;51878;55.748;48.742;2022-08-30T03:22:51;10.00;;;5.75;;
65279;SDS011;51878;55.748;48.742;2022-08-30T03:25:19;9.75;;;5.65;;
65279;SDS011;51878;55.748;48.742;2022-08-30T03:27:47;11.52;;;5.70;;
65279;SDS011;51878;55.748;48.742;2022-08-30T03:30:17;9.77;;;5.75;;
65279;SDS011;51878;55.748;48.742;2022-08-30T03:32:45;8.60;;;5.63;;
65279;SDS011;51878;55.748;48.742;2022-08-30T03:35:13;10.93;;;5.47;;
65279;SDS011;51878;55.748;48.742;2022-08-30T03:37:41;17.55;;;5.57;;
65279;SDS011;51878;55.748;48.742;2022-08-30T03:40:09;9.15;;;5.53;;
65279;SDS011;51878;55.748;48.742;2022-08-30T03:42:37;8.27;;;5.53;;
65279;SDS011;51878;55.748;48.742;2022-08-30T03:45:06;8.77;;;6.10;;
65279;SDS011;51878;55.748;48.742;2022-08-30T03:47:34;8.88;;;5.15;;
65279;SDS011;51878;55.748;48.742;2022-08-30T03:50:02;8.20;;;5.45;;
65279;SDS011;51878;55.748;48.742;2022-08-30T03:52:29;12.10;;;5.85;;
65279;SDS011;51878;55.748;48.742;2022-08-30T03:54:57;9.15;;;5.78;;
65279;SDS011;51878;55.748;48.742;2022-08-30T03:57:26;12.57;;;5.93;;
65279;SDS011;51878;55.748;48.742;2022-08-30T03:59:54;8.77;;;5.03;;
65279;SDS011;51878;55.748;48.742;2022-08-30T04:02:39;10.05;;;5.28;;
65279;SDS011;51878;55.748;48.742;2022-08-30T04:05:08;11.10;;;5.70;;
65279;SDS011;51878;55.748;48.742;2022-08-30T04:07:39;10.00;;;5.60;;
65279;SDS011;51878;55.748;48.742;2022-08-30T04:10:07;13.63;;;6.05;;
65279;SDS011;51878;55.748;48.742;2022-08-30T04:12:36;8.57;;;5.47;;
65279;SDS011;51878;55.748;48.742;2022-08-30T04:15:04;9.20;;;5.70;;
65279;SDS011;51878;55.748;48.742;2022-08-30T04:17:31;10.57;;;5.47;;
65279;SDS011;51878;55.748;48.742;2022-08-30T04:19:59;14.57;;;6.28;;
65279;SDS011;51878;55.748;48.742;2022-08-30T04:22:26;9.68;;;6.03;;
65279;SDS011;51878;55.748;48.742;2022-08-30T04:24:53;13.00;;;6.13;;
65279;SDS011;51878;55.748;48.742;2022-08-30T04:27:23;9.75;;;6.10;;
65279;SDS011;51878;55.748;48.742;2022-08-30T04:29:50;13.68;;;6.47;;
65279;SDS011;51878;55.748;48.742;2022-08-30T04:32:19;11.13;;;6.45;;
65279;SDS011;51878;55.748;48.742;2022-08-30T04:34:46;10.63;;;6.50;;
65279;SDS011;51878;55.748;48.742;2022-08-30T04:37:13;13.43;;;6.63;;
65279;SDS011;51878;55.748;48.742;2022-08-30T04:39:42;14.63;;;6.63;;
65279;SDS011;51878;55.748;48.742;2022-08-30T04:42:09;11.38;;;6.30;;
65279;SDS011;51878;55.748;48.742;2022-08-30T04:44:36;10.43;;;6.03;;
65279;SDS011;51878;55.748;48.742;2022-08-30T04:47:04;14.85;;;6.40;;
65279;SDS011;51878;55.748;48.742;2022-08-30T04:49:33;13.13;;;6.25;;
65279;SDS011;51878;55.748;48.742;2022-08-30T04:52:01;13.70;;;6.13;;
65279;SDS011;51878;55.748;48.742;2022-08-30T04:54:29;11.35;;;6.20;;
65279;SDS011;51878;55.748;48.742;2022-08-30T04:56:56;9.02;;;5.57;;
65279;SDS011;51878;55.748;48.742;2022-08-30T04:59:23;21.25;;;6.15;;
65279;SDS011;51878;55.748;48.742;2022-08-30T05:01:50;10.20;;;6.10;;
65279;SDS011;51878;55.748;48.742;2022-08-30T05:04:17;11.77;;;6.47;;
65279;SDS011;51878;55.748;48.742;2022-08-30T05:06:45;13.50;;;6.00;;
65279;SDS011;51878;55.748;48.742;2022-08-30T05:09:15;10.43;;;5.60;;
65279;SDS011;51878;55.748;48.742;2022-08-30T05:11:42;11.30;;;6.10;;
65279;SDS011;51878;55.748;48.742;2022-08-30T05:14:11;13.13;;;5.70;;
65279;SDS011;51878;55.748;48.742;2022-08-30T05:16:39;25.95;;;6.45;;
65279;SDS011;51878;55.748;48.742;2022-08-30T05:19:07;11.15;;;5.80;;
65279;SDS011;51878;55.748;48.742;2022-08-30T05:21:34;13.85;;;6.03;;
65279;SDS011;51878;55.748;48.742;2022-08-30T05:24:02;14.43;;;5.47;;
65279;SDS011;51878;55.748;48.742;2022-08-30T05:26:31;12.60;;;5.38;;
65279;SDS011;51878;55.748;48.742;2022-08-30T05:28:59;11.43;;;5.82;;
65279;SDS011;51878;55.748;48.742;2022-08-30T05:31:28;10.48;;;5.93;;
65279;SDS011;51878;55.748;48.742;2022-08-30T05:33:58;11.88;;;5.80;;
65279;SDS011;51878;55.748;48.742;2022-08-30T05:36:27;9.90;;;5.80;;
65279;SDS011;51878;55.748;48.742;2022-08-30T05:38:56;11.88;;;6.28;;
65279;SDS011;51878;55.748;48.742;2022-08-30T05:41:24;9.52;;;5.60;;
65279;SDS011;51878;55.748;48.742;2022-08-30T05:43:56;14.30;;;5.97;;
65279;SDS011;51878;55.748;48.742;2022-08-30T05:46:25;16.48;;;6.13;;
65279;SDS011;51878;55.748;48.742;2022-08-30T05:48:55;13.90;;;6.40;;
65279;SDS011;51878;55.748;48.742;2022-08-30T05:51:23;8.77;;;5.72;;
65279;SDS011;51878;55.748;48.742;2022-08-30T05:53:52;18.45;;;7.10;;
65279;SDS011;51878;55.748;48.742;2022-08-30T05:56:21;13.45;;;5.78;;
65279;SDS011;51878;55.748;48.742;2022-08-30T05:59:00;7.32;;;5.50;;
65279;SDS011;51878;55.748;48.742;2022-08-30T06:01:33;11.88;;;5.78;;
65279;SDS011;51878;55.748;48.742;2022-08-30T06:04:04;11.75;;;6.60;;
65279;SDS011;51878;55.748;48.742;2022-08-30T06:06:33;15.73;;;6.10;;
65279;SDS011;51878;55.748;48.742;2022-08-30T06:09:02;9.63;;;5.95;;
65279;SDS011;51878;55.748;48.742;2022-08-30T06:11:31;13.88;;;5.63;;
65279;SDS011;51878;55.748;48.742;2022-08-30T06:13:59;12.55;;;6.20;;
65279;SDS011;51878;55.748;48.742;2022-08-30T06:16:27;10.38;;;5.90;;
65279;SDS011;51878;55.748;48.742;2022-08-30T06:18:56;16.58;;;5.78;;
65279;SDS011;51878;55.748;48.742;2022-08-30T06:21:25;11.50;;;5.85;;
65279;SDS011;51878;55.748;48.742;2022-08-30T06:23:56;13.27;;;5.93;;
65279;SDS011;51878;55.748;48.742;2022-08-30T06:26:24;12.73;;;5.90;;
65279;SDS011;51878;55.748;48.742;2022-08-30T06:28:51;13.45;;;6.32;;
65279;SDS011;51878;55.748;48.742;2022-08-30T06:31:19;11.25;;;6.63;;
65279;SDS011;51878;55.748;48.742;2022-08-30T06:33:49;8.07;;;5.93;;
65279;SDS011;51878;55.748;48.742;2022-08-30T06:36:18;8.88;;;5.38;;
65279;SDS011;51878;55.748;48.742;2022-08-30T06:38:51;14.23;;;6.15;;
65279;SDS011;51878;55.748;48.742;2022-08-30T06:41:27;9.80;;;6.35;;
65279;SDS011;51878;55.748;48.742;2022-08-30T06:44:04;11.65;;;6.55;;
65279;SDS011;51878;55.748;48.742;2022-08-30T06:46:33;12.93;;;6.38;;
65279;SDS011;51878;55.748;48.742;2022-08-30T06:49:03;8.73;;;6.13;;
65279;SDS011;51878;55.748;48.742;2022-08-30T06:51:33;10.00;;;5.70;;
65279;SDS011;51878;55.748;48.742;2022-08-30T06:54:03;11.52;;;6.63;;
65279;SDS011;51878;55.748;48.742;2022-08-30T06:56:50;11.98;;;6.50;;
65279;SDS011;51878;55.748;48.742;2022-08-30T06:59:25;10.25;;;6.10;;
65279;SDS011;51878;55.748;48.742;2022-08-30T07:01:53;12.27;;;6.20;;
65279;SDS011;51878;55.748;48.742;2022-08-30T07:04:23;11.38;;;5.70;;
65279;SDS011;51878;55.748;48.742;2022-08-30T07:06:51;11.77;;;6.40;;
65279;SDS011;51878;55.748;48.742;2022-08-30T07:09:18;13.27;;;5.90;;
65279;SDS011;51878;55.748;48.742;2022-08-30T07:11:48;14.43;;;6.00;;
65279;SDS011;51878;55.748;48.742;2022-08-30T07:14:16;10.80;;;6.25;;
65279;SDS011;51878;55.748;48.742;2022-08-30T07:16:44;10.57;;;6.53;;
65279;SDS011;51878;55.748;48.742;2022-08-30T07:19:12;12.43;;;6.22;;
65279;SDS011;51878;55.748;48.742;2022-08-30T07:21:46;17.33;;;6.57;;
65279;SDS011;51878;55.748;48.742;2022-08-30T07:24:14;15.75;;;6.45;;
65279;SDS011;51878;55.748;48.742;2022-08-30T07:26:44;13.48;;;6.22;;
65279;SDS011;51878;55.748;48.742;2022-08-30T07:29:15;12.82;;;6.35;;
65279;SDS011;51878;55.748;48.742;2022-08-30T07:31:43;9.27;;;6.35;;
65279;SDS011;51878;55.748;48.742;2022-08-30T07:34:11;20.77;;;6.22;;
65279;SDS011;51878;55.748;48.742;2022-08-30T07:36:38;23.33;;;7.00;;
65279;SDS011;51878;55.748;48.742;2022-08-30T07:39:05;12.55;;;6.50;;
65279;SDS011;51878;55.748;48.742;2022-08-30T07:41:34;12.38;;;6.85;;
65279;SDS011;51878;55.748;48.742;2022-08-30T07:44:07;17.48;;;6.97;;
65279;SDS011;51878;55.748;48.742;2022-08-30T07:46:35;12.82;;;6.75;;
65279;SDS011;51878;55.748;48.742;2022-08-30T07:49:04;12.45;;;6.57;;
65279;SDS011;51878;55.748;48.742;2022-08-30T07:51:37;12.68;;;6.13;;
65279;SDS011;51878;55.748;48.742;2022-08-30T07:54:05;13.48;;;6.32;;
65279;SDS011;51878;55.748;48.742;2022-08-30T07:56:32;13.15;;;6.63;;
65279;SDS011;51878;55.748;48.742;2022-08-30T07:59:00;10.15;;;7.05;;
65279;SDS011;51878;55.748;48.742;2022-08-30T08:01:27;18.17;;;6.63;;
65279;SDS011;51878;55.748;48.742;2022-08-30T08:03:55;16.98;;;6.63;;
65279;SDS011;51878;55.748;48.742;2022-08-30T08:06:22;13.25;;;6.63;;
65279;SDS011;51878;55.748;48.742;2022-08-30T08:08:50;19.55;;;6.88;;
65279;SDS011;51878;55.748;48.742;2022-08-30T08:11:22;18.90;;;6.78;;
65279;SDS011;51878;55.748;48.742;2022-08-30T08:13:53;17.80;;;6.63;;
65279;SDS011;51878;55.748;48.742;2022-08-30T08:16:22;10.35;;;6.00;;
65279;SDS011;51878;55.748;48.742;2022-08-30T08:18:50;11.05;;;6.05;;
65279;SDS011;51878;55.748;48.742;2022-08-30T08:21:18;16.73;;;6.78;;
65279;SDS011;51878;55.748;48.742;2022-08-30T08:23:47;14.20;;;6.10;;
65279;SDS011;51878;55.748;48.742;2022-08-30T08:26:14;14.48;;;6.05;;
65279;SDS011;51878;55.748;48.742;2022-08-30T08:28:42;13.63;;;6.53;;
65279;SDS011;51878;55.748;48.742;2022-08-30T08:31:16;13.00;;;6.55;;
65279;SDS011;51878;55.748;48.742;2022-08-30T08:33:45;21.45;;;6.78;;
65279;SDS011;51878;55.748;48.742;2022-08-30T08:36:13;24.33;;;7.35;;
65279;SDS011;51878;55.748;48.742;2022-08-30T08:38:41;12.68;;;6.30;;
65279;SDS011;51878;55.748;48.742;2022-08-30T08:44:23;9.20;;;6.57;;
65279;SDS011;51878;55.748;48.742;2022-08-30T08:50:16;12.23;;;6.60;;
65279;SDS011;51878;55.748;48.742;2022-08-30T08:52:55;11.05;;;6.70;;
65279;SDS011;51878;55.748;48.742;2022-08-30T08:55:51;15.70;;;7.05;;
65279;SDS011;51878;55.748;48.742;2022-08-30T08:58:31;11.07;;;6.80;;
65279;SDS011;51878;55.748;48.742;2022-08-30T09:01:21;12.30;;;6.35;;
65279;SDS011;51878;55.748;48.742;2022-08-30T09:03:50;11.38;;;6.80;;
65279;SDS011;51878;55.748;48.742;2022-08-30T09:09:32;14.48;;;6.22;;
65279;SDS011;51878;55.748;48.742;2022-08-30T09:12:03;12.80;;;6.13;;
65279;SDS011;51878;55.748;48.742;2022-08-30T09:14:32;13.55;;;6.75;;
65279;SDS011;51878;55.748;48.742;2022-08-30T09:17:03;13.82;;;6.82;;
65279;SDS011;51878;55.748;48.742;2022-08-30T09:20:15;13.75;;;6.53;;
65279;SDS011;51878;55.748;48.742;2022-08-30T09:22:33;10.77;;;5.82;;
65279;SDS011;51878;55.748;48.742;2022-08-30T09:30:09;12.82;;;6.30;;
65279;SDS011;51878;55.748;48.742;2022-08-30T09:35:21;15.05;;;6.28;;
65279;SDS011;51878;55.748;48.742;2022-08-30T09:38:03;18.67;;;7.78;;
65279;SDS011;51878;55.748;48.742;2022-08-30T09:40:54;18.42;;;7.55;;
65279;SDS011;51878;55.748;48.742;2022-08-30T09:43:30;23.63;;;7.45;;
65279;SDS011;51878;55.748;48.742;2022-08-30T09:59:35;14.70;;;7.20;;
65279;SDS011;51878;55.748;48.742;2022-08-30T10:18:54;16.10;;;6.45;;
65279;SDS011;51878;55.748;48.742;2022-08-30T10:21:25;16.58;;;6.93;;
65279;SDS011;51878;55.748;48.742;2022-08-30T10:24:00;15.23;;;6.90;;
65279;SDS011;51878;55.748;48.742;2022-08-30T10:29:07;20.55;;;7.35;;
65279;SDS011;51878;55.748;48.742;2022-08-30T10:31:53;19.75;;;7.30;;
65279;SDS011;51878;55.748;48.742;2022-08-30T10:34:49;17.33;;;7.45;;
65279;SDS011;51878;55.748;48.742;2022-08-30T10:37:30;11.77;;;7.07;;
65279;SDS011;51878;55.748;48.742;2022-08-30T10:40:02;17.17;;;7.28;;
65279;SDS011;51878;55.748;48.742;2022-08-30T10:42:54;21.27;;;7.43;;
65279;SDS011;51878;55.748;48.742;2022-08-30T10:45:26;11.80;;;6.85;;
65279;SDS011;51878;55.748;48.742;2022-08-30T10:48:01;22.15;;;7.70;;
65279;SDS011;51878;55.748;48.742;2022-08-30T10:50:40;16.92;;;6.97;;
65279;SDS011;51878;55.748;48.742;2022-08-30T10:53:12;25.90;;;6.60;;
65279;SDS011;51878;55.748;48.742;2022-08-30T10:56:10;12.80;;;5.43;;
65279;SDS011;51878;55.748;48.742;2022-08-30T10:58:42;22.45;;;6.32;;
65279;SDS011;51878;55.748;48.742;2022-08-30T11:01:21;25.65;;;5.65;;
65279;SDS011;51878;55.748;48.742;2022-08-30T11:07:06;16.70;;;5.07;;
65279;SDS011;51878;55.748;48.742;2022-08-30T11:12:52;16.00;;;5.22;;
65279;SDS011;51878;55.748;48.742;2022-08-30T11:15:34;18.65;;;5.60;;
65279;SDS011;51878;55.748;48.742;2022-08-30T11:18:17;16.27;;;5.80;;
65279;SDS011;51878;55.748;48.742;2022-08-30T11:20:50;16.15;;;5.50;;
65279;SDS011;51878;55.748;48.742;2022-08-30T11:23:32;14.20;;;4.85;;
65279;SDS011;51878;55.748;48.742;2022-08-30T11:33:54;9.15;;;4.75;;
65279;SDS011;51878;55.748;48.742;2022-08-30T11:41:39;20.73;;;5.88;;
65279;SDS011;51878;55.748;48.742;2022-08-30T11:46:50;15.43;;;5.32;;
65279;SDS011;51878;55.748;48.742;2022-08-30T11:54:56;21.67;;;4.88;;
65279;SDS011;51878;55.748;48.742;2022-08-30T12:08:38;20.35;;;5.35;;
65279;SDS011;51878;55.748;48.742;2022-08-30T12:16:08;18.00;;;4.70;;
65279;SDS011;51878;55.748;48.742;2022-08-30T12:18:45;15.23;;;5.05;;
65279;SDS011;51878;55.748;48.742;2022-08-30T12:28:51;13.55;;;4.63;;
65279;SDS011;51878;55.748;48.742;2022-08-30T12:31:31;19.85;;;4.70;;
65279;SDS011;51878;55.748;48.742;2022-08-30T12:33:59;17.75;;;4.72;;
65279;SDS011;51878;55.748;48.742;2022-08-30T12:36:30;14.95;;;4.82;;
65279;SDS011;51878;55.748;48.742;2022-08-30T12:39:08;15.20;;;4.88;;
65279;SDS011;51878;55.748;48.742;2022-08-30T12:41:42;19.45;;;5.05;;
65279;SDS011;51878;55.748;48.742;2022-08-30T12:44:14;21.27;;;5.20;;
65279;SDS011;51878;55.748;48.742;2022-08-30T12:46:46;16.23;;;4.40;;
65279;SDS011;51878;55.748;48.742;2022-08-30T12:49:15;24.45;;;5.32;;
65279;SDS011;51878;55.748;48.742;2022-08-30T12:51:46;13.57;;;4.78;;
65279;SDS011;51878;55.748;48.742;2022-08-30T12:54:17;18.15;;;5.30;;
65279;SDS011;51878;55.748;48.742;2022-08-30T12:59:45;14.23;;;4.68;;
65279;SDS011;51878;55.748;48.742;2022-08-30T13:02:25;11.85;;;5.22;;
65279;SDS011;51878;55.748;48.742;2022-08-30T13:04:54;11.43;;;4.88;;
65279;SDS011;51878;55.748;48.742;2022-08-30T13:07:29;11.63;;;5.00;;
65279;SDS011;51878;55.748;48.742;2022-08-30T13:10:05;11.77;;;5.10;;
65279;SDS011;51878;55.748;48.742;2022-08-30T13:12:47;30.17;;;4.80;;
65279;SDS011;51878;55.748;48.742;2022-08-30T13:15:32;13.02;;;5.15;;
65279;SDS011;51878;55.748;48.742;2022-08-30T13:18:17;17.67;;;4.47;;
65279;SDS011;51878;55.748;48.742;2022-08-30T13:23:48;13.57;;;4.57;;
65279;SDS011;51878;55.748;48.742;2022-08-30T13:26:16;13.35;;;4.93;;
65279;SDS011;51878;55.748;48.742;2022-08-30T13:28:52;14.80;;;4.70;;
65279;SDS011;51878;55.748;48.742;2022-08-30T13:31:27;18.08;;;4.63;;
65279;SDS011;51878;55.748;48.742;2022-08-30T13:33:55;19.85;;;4.55;;
65279;SDS011;51878;55.748;48.742;2022-08-30T13:36:30;11.90;;;4.50;;
65279;SDS011;51878;55.748;48.742;2022-08-30T13:39:00;17.40;;;4.45;;
65279;SDS011;51878;55.748;48.742;2022-08-30T13:41:28;25.45;;;4.45;;
65279;SDS011;51878;55.748;48.742;2022-08-30T13:44:00;11.07;;;4.18;;
65279;SDS011;51878;55.748;48.742;2022-08-30T13:46:39;15.25;;;4.72;;
65279;SDS011;51878;55.748;48.742;2022-08-30T13:49:19;14.65;;;5.25;;
65279;SDS011;51878;55.748;48.742;2022-08-30T13:52:08;11.30;;;4.35;;
65279;SDS011;51878;55.748;48.742;2022-08-30T13:54:53;13.93;;;4.38;;
65279;SDS011;51878;55.748;48.742;2022-08-30T13:57:23;18.63;;;4.40;;
65279;SDS011;51878;55.748;48.742;2022-08-30T14:00:14;17.73;;;4.95;;
65279;SDS011;51878;55.748;48.742;2022-08-30T14:02:45;15.02;;;4.70;;
65279;SDS011;51878;55.748;48.742;2022-08-30T14:05:19;12.50;;;4.82;;
65279;SDS011;51878;55.748;48.742;2022-08-30T14:08:06;11.13;;;4.72;;
65279;SDS011;51878;55.748;48.742;2022-08-30T14:10:54;18.98;;;4.22;;
65279;SDS011;51878;55.748;48.742;2022-08-30T14:13:23;11.50;;;5.13;;
65279;SDS011;51878;55.748;48.742;2022-08-30T14:15:55;15.88;;;4.88;;
65279;SDS011;51878;55.748;48.742;2022-08-30T14:18:45;14.32;;;4.20;;
65279;SDS011;51878;55.748;48.742;2022-08-30T14:21:13;16.38;;;4.32;;
65279;SDS011;51878;55.748;48.742;2022-08-30T14:23:40;14.38;;;4.20;;
65279;SDS011;51878;55.748;48.742;2022-08-30T14:26:12;11.70;;;4.38;;
65279;SDS011;51878;55.748;48.742;2022-08-30T14:28:43;13.30;;;4.38;;
65279;SDS011;51878;55.748;48.742;2022-08-30T14:31:11;10.20;;;4.38;;
65279;SDS011;51878;55.748;48.742;2022-08-30T14:33:38;13.88;;;4.22;;
65279;SDS011;51878;55.748;48.742;2022-08-30T14:36:05;13.68;;;4.53;;
65279;SDS011;51878;55.748;48.742;2022-08-30T14:38:38;10.48;;;4.00;;
65279;SDS011;51878;55.748;48.742;2022-08-30T14:41:05;15.55;;;4.25;;
65279;SDS011;51878;55.748;48.742;2022-08-30T14:43:32;10.45;;;3.58;;
65279;SDS011;51878;55.748;48.742;2022-08-30T14:46:00;12.50;;;3.90;;
65279;SDS011;51878;55.748;48.742;2022-08-30T14:48:27;15.30;;;4.07;;
65279;SDS011;51878;55.748;48.742;2022-08-30T14:50:54;14.50;;;4.50;;
65279;SDS011;51878;55.748;48.742;2022-08-30T14:53:21;9.70;;;3.83;;
65279;SDS011;51878;55.748;48.742;2022-08-30T14:55:49;10.38;;;4.10;;
65279;SDS011;51878;55.748;48.742;2022-08-30T14:58:16;14.15;;;4.47;;
65279;SDS011;51878;55.748;48.742;2022-08-30T15:00:50;12.63;;;4.10;;
65279;SDS011;51878;55.748;48.742;2022-08-30T15:03:18;10.68;;;4.07;;
65279;SDS011;51878;55.748;48.742;2022-08-30T15:05:49;12.48;;;4.28;;
65279;SDS011;51878;55.748;48.742;2022-08-30T15:08:18;12.88;;;4.70;;
65279;SDS011;51878;55.748;48.742;2022-08-30T15:10:45;9.02;;;4.60;;
65279;SDS011;51878;55.748;48.742;2022-08-30T15:13:12;14.05;;;4.88;;
65279;SDS011;51878;55.748;48.742;2022-08-30T15:15:40;16.23;;;4.82;;
65279;SDS011;51878;55.748;48.742;2022-08-30T15:18:08;18.92;;;4.45;;
65279;SDS011;51878;55.748;48.742;2022-08-30T15:20:36;12.63;;;4.97;;
65279;SDS011;51878;55.748;48.742;2022-08-30T15:23:09;15.68;;;4.95;;
65279;SDS011;51878;55.748;48.742;2022-08-30T15:25:36;16.38;;;4.60;;
65279;SDS011;51878;55.748;48.742;2022-08-30T15:28:04;9.75;;;4.70;;
65279;SDS011;51878;55.748;48.742;2022-08-30T15:30:35;18.45;;;4.60;;
65279;SDS011;51878;55.748;48.742;2022-08-30T15:33:03;11.23;;;3.95;;
65279;SDS011;51878;55.748;48.742;2022-08-30T15:35:32;11.60;;;4.35;;
65279;SDS011;51878;55.748;48.742;2022-08-30T15:37:59;11.52;;;4.50;;
65279;SDS011;51878;55.748;48.742;2022-08-30T15:40:26;14.23;;;4.32;;
65279;SDS011;51878;55.748;48.742;2022-08-30T15:42:55;16.60;;;4.32;;
65279;SDS011;51878;55.748;48.742;2022-08-30T15:45:22;17.55;;;4.85;;
65279;SDS011;51878;55.748;48.742;2022-08-30T15:47:49;14.60;;;4.30;;
65279;SDS011;51878;55.748;48.742;2022-08-30T15:50:16;16.45;;;4.75;;
65279;SDS011;51878;55.748;48.742;2022-08-30T15:52:43;16.05;;;4.72;;
65279;SDS011;51878;55.748;48.742;2022-08-30T15:55:11;12.77;;;4.85;;
65279;SDS011;51878;55.748;48.742;2022-08-30T15:57:38;20.75;;;4.75;;
65279;SDS011;51878;55.748;48.742;2022-08-30T16:00:05;14.20;;;4.60;;
65279;SDS011;51878;55.748;48.742;2022-08-30T16:02:35;12.25;;;4.55;;
65279;SDS011;51878;55.748;48.742;2022-08-30T16:05:03;11.80;;;4.35;;
65279;SDS011;51878;55.748;48.742;2022-08-30T16:07:31;13.73;;;4.30;;
65279;SDS011;51878;55.748;48.742;2022-08-30T16:10:01;8.40;;;4.28;;
65279;SDS011;51878;55.748;48.742;2022-08-30T16:12:29;15.80;;;4.70;;
65279;SDS011;51878;55.748;48.742;2022-08-30T16:14:56;10.77;;;3.60;;
65279;SDS011;51878;55.748;48.742;2022-08-30T16:17:23;15.10;;;4.50;;
65279;SDS011;51878;55.748;48.742;2022-08-30T16:19:50;8.68;;;4.55;;
65279;SDS011;51878;55.748;48.742;2022-08-30T16:22:22;15.32;;;4.13;;
65279;SDS011;51878;55.748;48.742;2022-08-30T16:24:50;10.63;;;3.80;;
65279;SDS011;51878;55.748;48.742;2022-08-30T16:27:17;11.45;;;4.50;;
65279;SDS011;51878;55.748;48.742;2022-08-30T16:30:05;7.78;;;3.80;;
65279;SDS011;51878;55.748;48.742;2022-08-30T16:32:32;9.43;;;3.90;;
65279;SDS011;51878;55.748;48.742;2022-08-30T16:35:00;9.00;;;3.92;;